sensor_id;sensor_type;location;lat;lon;timestamp;P1;durP1;ratioP1;P2;durP2;ratioP2
37655;SDS011;23498;50.958;3.124;2023-07-29T00:02:11;4.22;;;1.98;;
37655;SDS011;23498;50.958;3.124;2023-07-29T00:04:37;4.65;;;2.33;;
37655;SDS011;23498;50.958;3.124;2023-07-29T00:07:03;4.00;;;2.40;;
37655;SDS011;23498;50.958;3.124;2023-07-29T00:09:29;5.05;;;2.33;;
37655;SDS011;23498;50.958;3.124;2023-07-29T00:11:55;5.53;;;2.70;;
37655;SDS011;23498;50.958;3.124;2023-07-29T00:14:21;4.43;;;2.15;;
37655;SDS011;23498;50.958;3.124;2023-07-29T00:16:47;4.32;;;2.20;;
37655;SDS011;23498;50.958;3.124;2023-07-29T00:19:13;4.78;;;2.47;;
37655;SDS011;23498;50.958;3.124;2023-07-29T00:21:39;5.53;;;2.60;;
37655;SDS011;23498;50.958;3.124;2023-07-29T00:24:06;4.03;;;2.30;;
37655;SDS011;23498;50.958;3.124;2023-07-29T00:26:32;5.50;;;2.65;;
37655;SDS011;23498;50.958;3.124;2023-07-29T00:28:58;5.13;;;3.00;;
37655;SDS011;23498;50.958;3.124;2023-07-29T00:31:24;4.30;;;2.50;;
37655;SDS011;23498;50.958;3.124;2023-07-29T00:33:50;4.88;;;2.83;;
37655;SDS011;23498;50.958;3.124;2023-07-29T00:36:17;5.05;;;2.80;;
37655;SDS011;23498;50.958;3.124;2023-07-29T00:38:44;4.97;;;2.70;;
37655;SDS011;23498;50.958;3.124;2023-07-29T00:41:10;4.85;;;2.83;;
37655;SDS011;23498;50.958;3.124;2023-07-29T00:43:38;4.63;;;2.58;;
37655;SDS011;23498;50.958;3.124;2023-07-29T00:46:04;7.65;;;3.25;;
37655;SDS011;23498;50.958;3.124;2023-07-29T00:48:31;6.93;;;3.25;;
37655;SDS011;23498;50.958;3.124;2023-07-29T00:50:57;6.15;;;2.80;;
37655;SDS011;23498;50.958;3.124;2023-07-29T00:53:23;7.10;;;3.17;;
37655;SDS011;23498;50.958;3.124;2023-07-29T00:55:49;4.97;;;2.85;;
37655;SDS011;23498;50.958;3.124;2023-07-29T00:58:15;6.57;;;3.15;;
37655;SDS011;23498;50.958;3.124;2023-07-29T01:00:41;7.28;;;3.35;;
37655;SDS011;23498;50.958;3.124;2023-07-29T01:03:07;5.10;;;2.70;;
37655;SDS011;23498;50.958;3.124;2023-07-29T01:05:40;6.32;;;3.40;;
37655;SDS011;23498;50.958;3.124;2023-07-29T01:08:13;5.65;;;3.03;;
37655;SDS011;23498;50.958;3.124;2023-07-29T01:11:18;6.15;;;3.20;;
37655;SDS011;23498;50.958;3.124;2023-07-29T01:13:50;5.40;;;2.92;;
37655;SDS011;23498;50.958;3.124;2023-07-29T01:16:23;6.82;;;3.53;;
37655;SDS011;23498;50.958;3.124;2023-07-29T01:18:50;7.95;;;2.97;;
37655;SDS011;23498;50.958;3.124;2023-07-29T01:21:17;6.28;;;2.85;;
37655;SDS011;23498;50.958;3.124;2023-07-29T01:23:45;6.03;;;3.08;;
37655;SDS011;23498;50.958;3.124;2023-07-29T01:26:11;5.38;;;2.92;;
37655;SDS011;23498;50.958;3.124;2023-07-29T01:28:37;5.15;;;2.85;;
37655;SDS011;23498;50.958;3.124;2023-07-29T01:31:10;4.95;;;2.42;;
37655;SDS011;23498;50.958;3.124;2023-07-29T01:33:40;6.22;;;2.80;;
37655;SDS011;23498;50.958;3.124;2023-07-29T01:36:11;5.43;;;2.83;;
37655;SDS011;23498;50.958;3.124;2023-07-29T01:38:38;4.65;;;2.55;;
37655;SDS011;23498;50.958;3.124;2023-07-29T01:41:06;5.50;;;2.95;;
37655;SDS011;23498;50.958;3.124;2023-07-29T01:43:32;5.50;;;2.53;;
37655;SDS011;23498;50.958;3.124;2023-07-29T01:45:59;5.10;;;2.63;;
37655;SDS011;23498;50.958;3.124;2023-07-29T01:48:26;6.47;;;3.05;;
37655;SDS011;23498;50.958;3.124;2023-07-29T01:50:55;5.82;;;3.03;;
37655;SDS011;23498;50.958;3.124;2023-07-29T01:53:21;6.18;;;2.50;;
37655;SDS011;23498;50.958;3.124;2023-07-29T01:55:47;5.15;;;2.60;;
37655;SDS011;23498;50.958;3.124;2023-07-29T01:58:13;7.18;;;3.17;;
37655;SDS011;23498;50.958;3.124;2023-07-29T02:00:39;6.53;;;3.08;;
37655;SDS011;23498;50.958;3.124;2023-07-29T02:03:05;6.25;;;2.97;;
37655;SDS011;23498;50.958;3.124;2023-07-29T02:05:31;5.63;;;3.38;;
37655;SDS011;23498;50.958;3.124;2023-07-29T02:07:57;6.15;;;3.13;;
37655;SDS011;23498;50.958;3.124;2023-07-29T02:10:23;8.25;;;3.28;;
37655;SDS011;23498;50.958;3.124;2023-07-29T02:12:49;4.22;;;2.60;;
37655;SDS011;23498;50.958;3.124;2023-07-29T02:15:15;5.20;;;2.53;;
37655;SDS011;23498;50.958;3.124;2023-07-29T02:17:41;6.65;;;2.90;;
37655;SDS011;23498;50.958;3.124;2023-07-29T02:20:08;4.40;;;2.50;;
37655;SDS011;23498;50.958;3.124;2023-07-29T02:22:35;6.20;;;2.90;;
37655;SDS011;23498;50.958;3.124;2023-07-29T02:25:01;5.57;;;2.60;;
37655;SDS011;23498;50.958;3.124;2023-07-29T02:27:27;5.53;;;2.50;;
37655;SDS011;23498;50.958;3.124;2023-07-29T02:29:54;4.82;;;2.85;;
37655;SDS011;23498;50.958;3.124;2023-07-29T02:32:20;4.88;;;2.90;;
37655;SDS011;23498;50.958;3.124;2023-07-29T02:34:46;6.45;;;3.13;;
37655;SDS011;23498;50.958;3.124;2023-07-29T02:37:12;5.38;;;2.55;;
37655;SDS011;23498;50.958;3.124;2023-07-29T02:39:38;5.53;;;2.65;;
37655;SDS011;23498;50.958;3.124;2023-07-29T02:42:04;5.63;;;2.80;;
37655;SDS011;23498;50.958;3.124;2023-07-29T02:44:30;7.03;;;2.88;;
37655;SDS011;23498;50.958;3.124;2023-07-29T02:46:56;6.13;;;2.97;;
37655;SDS011;23498;50.958;3.124;2023-07-29T02:49:22;5.60;;;3.15;;
37655;SDS011;23498;50.958;3.124;2023-07-29T02:51:48;6.40;;;2.72;;
37655;SDS011;23498;50.958;3.124;2023-07-29T02:54:14;5.70;;;3.45;;
37655;SDS011;23498;50.958;3.124;2023-07-29T02:56:40;6.30;;;2.90;;
37655;SDS011;23498;50.958;3.124;2023-07-29T02:59:06;4.97;;;2.78;;
37655;SDS011;23498;50.958;3.124;2023-07-29T03:01:32;5.38;;;3.00;;
37655;SDS011;23498;50.958;3.124;2023-07-29T03:03:58;7.63;;;3.22;;
37655;SDS011;23498;50.958;3.124;2023-07-29T03:06:24;5.90;;;3.25;;
37655;SDS011;23498;50.958;3.124;2023-07-29T03:08:50;6.13;;;3.10;;
37655;SDS011;23498;50.958;3.124;2023-07-29T03:11:16;5.63;;;3.17;;
37655;SDS011;23498;50.958;3.124;2023-07-29T03:13:43;6.97;;;3.30;;
37655;SDS011;23498;50.958;3.124;2023-07-29T03:16:10;5.93;;;2.92;;
37655;SDS011;23498;50.958;3.124;2023-07-29T03:18:36;5.32;;;2.70;;
37655;SDS011;23498;50.958;3.124;2023-07-29T03:21:02;5.47;;;2.88;;
37655;SDS011;23498;50.958;3.124;2023-07-29T03:23:29;4.63;;;2.72;;
37655;SDS011;23498;50.958;3.124;2023-07-29T03:25:55;5.97;;;2.80;;
37655;SDS011;23498;50.958;3.124;2023-07-29T03:28:26;5.57;;;2.60;;
37655;SDS011;23498;50.958;3.124;2023-07-29T03:30:56;5.47;;;2.78;;
37655;SDS011;23498;50.958;3.124;2023-07-29T03:33:22;5.07;;;2.75;;
37655;SDS011;23498;50.958;3.124;2023-07-29T03:35:48;5.55;;;3.00;;
37655;SDS011;23498;50.958;3.124;2023-07-29T03:38:14;5.90;;;2.92;;
37655;SDS011;23498;50.958;3.124;2023-07-29T03:40:41;5.70;;;2.80;;
37655;SDS011;23498;50.958;3.124;2023-07-29T03:43:07;8.30;;;2.88;;
37655;SDS011;23498;50.958;3.124;2023-07-29T03:45:34;6.18;;;2.83;;
37655;SDS011;23498;50.958;3.124;2023-07-29T03:48:00;6.55;;;3.47;;
37655;SDS011;23498;50.958;3.124;2023-07-29T03:50:26;7.18;;;3.25;;
37655;SDS011;23498;50.958;3.124;2023-07-29T03:52:52;5.15;;;2.92;;
37655;SDS011;23498;50.958;3.124;2023-07-29T03:55:18;5.47;;;3.20;;
37655;SDS011;23498;50.958;3.124;2023-07-29T03:57:45;7.40;;;3.35;;
37655;SDS011;23498;50.958;3.124;2023-07-29T04:00:11;7.25;;;3.15;;
37655;SDS011;23498;50.958;3.124;2023-07-29T04:02:37;6.25;;;3.38;;
37655;SDS011;23498;50.958;3.124;2023-07-29T04:05:04;7.50;;;3.20;;
37655;SDS011;23498;50.958;3.124;2023-07-29T04:07:31;5.65;;;3.20;;
37655;SDS011;23498;50.958;3.124;2023-07-29T04:09:57;7.95;;;3.50;;
37655;SDS011;23498;50.958;3.124;2023-07-29T04:12:23;6.57;;;3.47;;
37655;SDS011;23498;50.958;3.124;2023-07-29T04:14:49;6.80;;;3.45;;
37655;SDS011;23498;50.958;3.124;2023-07-29T04:17:15;8.07;;;3.70;;
37655;SDS011;23498;50.958;3.124;2023-07-29T04:19:41;5.13;;;3.15;;
37655;SDS011;23498;50.958;3.124;2023-07-29T04:22:08;4.95;;;3.22;;
37655;SDS011;23498;50.958;3.124;2023-07-29T04:24:33;7.22;;;3.63;;
37655;SDS011;23498;50.958;3.124;2023-07-29T04:26:59;6.82;;;3.13;;
37655;SDS011;23498;50.958;3.124;2023-07-29T04:29:25;5.32;;;3.40;;
37655;SDS011;23498;50.958;3.124;2023-07-29T04:31:52;5.57;;;3.30;;
37655;SDS011;23498;50.958;3.124;2023-07-29T04:34:18;5.88;;;3.40;;
37655;SDS011;23498;50.958;3.124;2023-07-29T04:36:45;6.95;;;3.63;;
37655;SDS011;23498;50.958;3.124;2023-07-29T04:39:11;8.98;;;3.10;;
37655;SDS011;23498;50.958;3.124;2023-07-29T04:41:37;5.68;;;3.42;;
37655;SDS011;23498;50.958;3.124;2023-07-29T04:44:03;5.90;;;2.92;;
37655;SDS011;23498;50.958;3.124;2023-07-29T04:46:29;6.05;;;2.85;;
37655;SDS011;23498;50.958;3.124;2023-07-29T04:48:55;5.60;;;3.45;;
37655;SDS011;23498;50.958;3.124;2023-07-29T04:51:21;5.47;;;2.83;;
37655;SDS011;23498;50.958;3.124;2023-07-29T04:53:47;4.93;;;3.03;;
37655;SDS011;23498;50.958;3.124;2023-07-29T04:56:13;6.65;;;2.92;;
37655;SDS011;23498;50.958;3.124;2023-07-29T04:58:39;5.57;;;2.97;;
37655;SDS011;23498;50.958;3.124;2023-07-29T05:01:05;4.70;;;2.90;;
37655;SDS011;23498;50.958;3.124;2023-07-29T05:03:31;5.10;;;3.05;;
37655;SDS011;23498;50.958;3.124;2023-07-29T05:05:58;5.13;;;2.80;;
37655;SDS011;23498;50.958;3.124;2023-07-29T05:08:24;5.75;;;2.60;;
37655;SDS011;23498;50.958;3.124;2023-07-29T05:10:50;5.45;;;2.88;;
37655;SDS011;23498;50.958;3.124;2023-07-29T05:13:17;6.05;;;2.70;;
37655;SDS011;23498;50.958;3.124;2023-07-29T05:15:44;4.55;;;2.60;;
37655;SDS011;23498;50.958;3.124;2023-07-29T05:18:10;4.40;;;2.45;;
37655;SDS011;23498;50.958;3.124;2023-07-29T05:20:36;5.57;;;2.58;;
37655;SDS011;23498;50.958;3.124;2023-07-29T05:23:02;5.13;;;2.40;;
37655;SDS011;23498;50.958;3.124;2023-07-29T05:25:28;4.22;;;2.30;;
37655;SDS011;23498;50.958;3.124;2023-07-29T05:27:54;4.70;;;2.40;;
37655;SDS011;23498;50.958;3.124;2023-07-29T05:30:21;4.95;;;2.53;;
37655;SDS011;23498;50.958;3.124;2023-07-29T05:32:47;5.18;;;2.35;;
37655;SDS011;23498;50.958;3.124;2023-07-29T05:35:14;5.35;;;2.45;;
37655;SDS011;23498;50.958;3.124;2023-07-29T05:37:40;5.18;;;2.28;;
37655;SDS011;23498;50.958;3.124;2023-07-29T05:40:07;7.10;;;2.30;;
37655;SDS011;23498;50.958;3.124;2023-07-29T05:42:33;4.80;;;2.17;;
37655;SDS011;23498;50.958;3.124;2023-07-29T05:44:59;6.63;;;2.00;;
37655;SDS011;23498;50.958;3.124;2023-07-29T05:47:25;4.10;;;1.92;;
37655;SDS011;23498;50.958;3.124;2023-07-29T05:49:52;4.57;;;1.70;;
37655;SDS011;23498;50.958;3.124;2023-07-29T05:52:18;3.75;;;1.50;;
37655;SDS011;23498;50.958;3.124;2023-07-29T05:54:44;3.80;;;1.58;;
37655;SDS011;23498;50.958;3.124;2023-07-29T05:57:11;4.03;;;1.90;;
37655;SDS011;23498;50.958;3.124;2023-07-29T05:59:37;4.32;;;1.90;;
37655;SDS011;23498;50.958;3.124;2023-07-29T06:02:03;3.20;;;1.92;;
37655;SDS011;23498;50.958;3.124;2023-07-29T06:04:29;3.42;;;1.80;;
37655;SDS011;23498;50.958;3.124;2023-07-29T06:06:55;4.82;;;1.83;;
37655;SDS011;23498;50.958;3.124;2023-07-29T06:09:22;3.88;;;1.70;;
37655;SDS011;23498;50.958;3.124;2023-07-29T06:11:48;4.35;;;1.73;;
37655;SDS011;23498;50.958;3.124;2023-07-29T06:14:14;4.55;;;1.85;;
37655;SDS011;23498;50.958;3.124;2023-07-29T06:16:40;3.53;;;1.98;;
37655;SDS011;23498;50.958;3.124;2023-07-29T06:19:06;3.42;;;1.60;;
37655;SDS011;23498;50.958;3.124;2023-07-29T06:21:33;3.20;;;1.52;;
37655;SDS011;23498;50.958;3.124;2023-07-29T06:23:59;3.92;;;1.58;;
37655;SDS011;23498;50.958;3.124;2023-07-29T06:26:25;4.57;;;1.45;;
37655;SDS011;23498;50.958;3.124;2023-07-29T06:28:52;3.63;;;1.83;;
37655;SDS011;23498;50.958;3.124;2023-07-29T06:31:18;3.08;;;1.55;;
37655;SDS011;23498;50.958;3.124;2023-07-29T06:33:44;3.15;;;1.67;;
37655;SDS011;23498;50.958;3.124;2023-07-29T06:36:10;2.83;;;1.48;;
37655;SDS011;23498;50.958;3.124;2023-07-29T06:38:36;3.15;;;1.65;;
37655;SDS011;23498;50.958;3.124;2023-07-29T06:41:03;4.75;;;1.75;;
37655;SDS011;23498;50.958;3.124;2023-07-29T06:43:29;3.70;;;1.60;;
37655;SDS011;23498;50.958;3.124;2023-07-29T06:45:55;4.43;;;1.88;;
37655;SDS011;23498;50.958;3.124;2023-07-29T06:48:21;4.68;;;1.42;;
37655;SDS011;23498;50.958;3.124;2023-07-29T06:50:47;2.92;;;1.58;;
37655;SDS011;23498;50.958;3.124;2023-07-29T06:53:13;3.70;;;1.58;;
37655;SDS011;23498;50.958;3.124;2023-07-29T06:55:39;3.42;;;1.77;;
37655;SDS011;23498;50.958;3.124;2023-07-29T06:58:05;3.00;;;1.40;;
37655;SDS011;23498;50.958;3.124;2023-07-29T07:00:31;4.63;;;1.70;;
37655;SDS011;23498;50.958;3.124;2023-07-29T07:02:57;4.55;;;1.50;;
37655;SDS011;23498;50.958;3.124;2023-07-29T07:05:23;3.53;;;1.50;;
37655;SDS011;23498;50.958;3.124;2023-07-29T07:07:49;3.83;;;1.52;;
37655;SDS011;23498;50.958;3.124;2023-07-29T07:10:15;6.13;;;1.58;;
37655;SDS011;23498;50.958;3.124;2023-07-29T07:12:41;2.83;;;1.60;;
37655;SDS011;23498;50.958;3.124;2023-07-29T07:15:07;4.00;;;2.10;;
37655;SDS011;23498;50.958;3.124;2023-07-29T07:17:34;3.30;;;1.63;;
37655;SDS011;23498;50.958;3.124;2023-07-29T07:20:00;4.43;;;1.85;;
37655;SDS011;23498;50.958;3.124;2023-07-29T07:22:26;3.53;;;1.80;;
37655;SDS011;23498;50.958;3.124;2023-07-29T07:24:52;3.25;;;1.58;;
37655;SDS011;23498;50.958;3.124;2023-07-29T07:27:18;5.07;;;1.65;;
37655;SDS011;23498;50.958;3.124;2023-07-29T07:29:44;3.85;;;1.80;;
37655;SDS011;23498;50.958;3.124;2023-07-29T07:32:10;3.70;;;1.55;;
37655;SDS011;23498;50.958;3.124;2023-07-29T07:34:36;3.15;;;1.55;;
37655;SDS011;23498;50.958;3.124;2023-07-29T07:37:02;7.25;;;1.75;;
37655;SDS011;23498;50.958;3.124;2023-07-29T07:39:29;3.58;;;1.65;;
37655;SDS011;23498;50.958;3.124;2023-07-29T07:41:55;6.60;;;1.77;;
37655;SDS011;23498;50.958;3.124;2023-07-29T07:44:21;3.50;;;1.60;;
37655;SDS011;23498;50.958;3.124;2023-07-29T07:46:48;3.50;;;1.80;;
37655;SDS011;23498;50.958;3.124;2023-07-29T07:49:14;4.95;;;1.80;;
37655;SDS011;23498;50.958;3.124;2023-07-29T07:51:40;4.95;;;1.80;;
37655;SDS011;23498;50.958;3.124;2023-07-29T07:54:06;3.53;;;1.70;;
37655;SDS011;23498;50.958;3.124;2023-07-29T07:56:32;3.50;;;1.40;;
37655;SDS011;23498;50.958;3.124;2023-07-29T07:58:58;2.97;;;1.60;;
37655;SDS011;23498;50.958;3.124;2023-07-29T08:01:24;4.15;;;1.98;;
37655;SDS011;23498;50.958;3.124;2023-07-29T08:03:50;5.78;;;1.80;;
37655;SDS011;23498;50.958;3.124;2023-07-29T08:06:16;3.40;;;1.90;;
37655;SDS011;23498;50.958;3.124;2023-07-29T08:08:42;5.65;;;1.92;;
37655;SDS011;23498;50.958;3.124;2023-07-29T08:11:08;3.65;;;1.80;;
37655;SDS011;23498;50.958;3.124;2023-07-29T08:13:34;3.38;;;1.73;;
37655;SDS011;23498;50.958;3.124;2023-07-29T08:16:00;4.03;;;1.90;;
37655;SDS011;23498;50.958;3.124;2023-07-29T08:18:26;4.53;;;1.73;;
37655;SDS011;23498;50.958;3.124;2023-07-29T08:20:56;4.18;;;2.03;;
37655;SDS011;23498;50.958;3.124;2023-07-29T08:23:35;5.18;;;2.25;;
37655;SDS011;23498;50.958;3.124;2023-07-29T08:26:03;4.38;;;1.95;;
37655;SDS011;23498;50.958;3.124;2023-07-29T08:28:30;3.55;;;2.00;;
37655;SDS011;23498;50.958;3.124;2023-07-29T08:30:57;4.43;;;1.85;;
37655;SDS011;23498;50.958;3.124;2023-07-29T08:33:23;4.13;;;1.90;;
37655;SDS011;23498;50.958;3.124;2023-07-29T08:35:49;3.83;;;1.80;;
37655;SDS011;23498;50.958;3.124;2023-07-29T08:38:15;4.90;;;2.25;;
37655;SDS011;23498;50.958;3.124;2023-07-29T08:41:02;3.97;;;1.85;;
37655;SDS011;23498;50.958;3.124;2023-07-29T08:43:31;3.70;;;2.10;;
37655;SDS011;23498;50.958;3.124;2023-07-29T08:45:57;6.25;;;2.28;;
37655;SDS011;23498;50.958;3.124;2023-07-29T08:48:28;3.78;;;1.95;;
37655;SDS011;23498;50.958;3.124;2023-07-29T08:50:55;3.55;;;2.15;;
37655;SDS011;23498;50.958;3.124;2023-07-29T08:53:21;4.30;;;2.30;;
37655;SDS011;23498;50.958;3.124;2023-07-29T08:55:47;4.85;;;2.15;;
37655;SDS011;23498;50.958;3.124;2023-07-29T08:58:14;4.10;;;2.33;;
37655;SDS011;23498;50.958;3.124;2023-07-29T09:00:41;5.03;;;2.00;;
37655;SDS011;23498;50.958;3.124;2023-07-29T09:03:08;4.72;;;2.45;;
37655;SDS011;23498;50.958;3.124;2023-07-29T09:05:34;3.65;;;2.45;;
37655;SDS011;23498;50.958;3.124;2023-07-29T09:08:00;4.15;;;2.40;;
37655;SDS011;23498;50.958;3.124;2023-07-29T09:10:28;4.63;;;3.30;;
37655;SDS011;23498;50.958;3.124;2023-07-29T09:12:54;4.50;;;2.80;;
37655;SDS011;23498;50.958;3.124;2023-07-29T09:15:28;4.43;;;2.50;;
37655;SDS011;23498;50.958;3.124;2023-07-29T09:17:55;6.00;;;2.65;;
37655;SDS011;23498;50.958;3.124;2023-07-29T09:20:27;3.60;;;2.45;;
37655;SDS011;23498;50.958;3.124;2023-07-29T09:22:54;4.75;;;2.20;;
37655;SDS011;23498;50.958;3.124;2023-07-29T09:25:24;3.10;;;1.95;;
37655;SDS011;23498;50.958;3.124;2023-07-29T09:27:50;7.00;;;2.55;;
37655;SDS011;23498;50.958;3.124;2023-07-29T09:30:16;3.65;;;2.47;;
37655;SDS011;23498;50.958;3.124;2023-07-29T09:32:42;4.15;;;2.63;;
37655;SDS011;23498;50.958;3.124;2023-07-29T09:35:12;4.32;;;2.35;;
37655;SDS011;23498;50.958;3.124;2023-07-29T09:37:38;4.97;;;2.70;;
37655;SDS011;23498;50.958;3.124;2023-07-29T09:40:05;4.32;;;3.13;;
37655;SDS011;23498;50.958;3.124;2023-07-29T09:42:31;4.43;;;3.30;;
37655;SDS011;23498;50.958;3.124;2023-07-29T09:44:57;4.60;;;3.53;;
37655;SDS011;23498;50.958;3.124;2023-07-29T09:47:24;3.58;;;2.60;;
37655;SDS011;23498;50.958;3.124;2023-07-29T09:49:50;5.50;;;2.67;;
37655;SDS011;23498;50.958;3.124;2023-07-29T09:52:17;4.30;;;3.03;;
37655;SDS011;23498;50.958;3.124;2023-07-29T09:54:43;4.63;;;3.28;;
37655;SDS011;23498;50.958;3.124;2023-07-29T09:57:10;4.18;;;3.33;;
37655;SDS011;23498;50.958;3.124;2023-07-29T09:59:37;5.20;;;3.15;;
37655;SDS011;23498;50.958;3.124;2023-07-29T10:02:03;3.63;;;3.03;;
37655;SDS011;23498;50.958;3.124;2023-07-29T10:04:29;3.65;;;2.60;;
37655;SDS011;23498;50.958;3.124;2023-07-29T10:06:55;4.07;;;2.83;;
37655;SDS011;23498;50.958;3.124;2023-07-29T10:09:23;5.60;;;3.00;;
37655;SDS011;23498;50.958;3.124;2023-07-29T10:11:50;4.32;;;2.90;;
37655;SDS011;23498;50.958;3.124;2023-07-29T10:14:18;4.97;;;3.33;;
37655;SDS011;23498;50.958;3.124;2023-07-29T10:16:44;4.65;;;3.38;;
37655;SDS011;23498;50.958;3.124;2023-07-29T10:19:11;5.25;;;3.90;;
37655;SDS011;23498;50.958;3.124;2023-07-29T10:21:39;5.90;;;3.95;;
37655;SDS011;23498;50.958;3.124;2023-07-29T10:24:09;5.10;;;3.85;;
37655;SDS011;23498;50.958;3.124;2023-07-29T10:26:37;5.50;;;3.47;;
37655;SDS011;23498;50.958;3.124;2023-07-29T10:29:04;5.07;;;3.17;;
37655;SDS011;23498;50.958;3.124;2023-07-29T10:31:33;3.80;;;2.83;;
37655;SDS011;23498;50.958;3.124;2023-07-29T10:33:59;5.15;;;2.60;;
37655;SDS011;23498;50.958;3.124;2023-07-29T10:36:26;5.07;;;2.40;;
37655;SDS011;23498;50.958;3.124;2023-07-29T10:38:52;5.55;;;2.78;;
37655;SDS011;23498;50.958;3.124;2023-07-29T10:41:19;3.58;;;2.10;;
37655;SDS011;23498;50.958;3.124;2023-07-29T10:43:45;3.95;;;2.33;;
37655;SDS011;23498;50.958;3.124;2023-07-29T10:46:15;4.45;;;2.47;;
37655;SDS011;23498;50.958;3.124;2023-07-29T10:48:42;4.18;;;2.28;;
37655;SDS011;23498;50.958;3.124;2023-07-29T10:51:25;7.47;;;2.67;;
37655;SDS011;23498;50.958;3.124;2023-07-29T10:54:01;3.85;;;2.20;;
37655;SDS011;23498;50.958;3.124;2023-07-29T10:56:33;4.00;;;2.45;;
37655;SDS011;23498;50.958;3.124;2023-07-29T11:01:40;4.80;;;2.10;;
37655;SDS011;23498;50.958;3.124;2023-07-29T11:14:52;4.13;;;1.45;;
37655;SDS011;23498;50.958;3.124;2023-07-29T11:17:18;3.63;;;1.45;;
37655;SDS011;23498;50.958;3.124;2023-07-29T11:19:45;4.18;;;1.48;;
37655;SDS011;23498;50.958;3.124;2023-07-29T11:22:11;3.10;;;1.35;;
37655;SDS011;23498;50.958;3.124;2023-07-29T11:24:37;3.38;;;1.20;;
37655;SDS011;23498;50.958;3.124;2023-07-29T11:27:03;2.83;;;1.10;;
37655;SDS011;23498;50.958;3.124;2023-07-29T11:29:30;2.42;;;1.23;;
37655;SDS011;23498;50.958;3.124;2023-07-29T11:31:56;2.47;;;1.10;;
37655;SDS011;23498;50.958;3.124;2023-07-29T11:34:34;3.22;;;1.17;;
37655;SDS011;23498;50.958;3.124;2023-07-29T11:37:00;2.35;;;1.13;;
37655;SDS011;23498;50.958;3.124;2023-07-29T11:39:26;2.47;;;0.95;;
37655;SDS011;23498;50.958;3.124;2023-07-29T11:41:52;2.22;;;1.27;;
37655;SDS011;23498;50.958;3.124;2023-07-29T11:44:18;3.20;;;1.33;;
37655;SDS011;23498;50.958;3.124;2023-07-29T11:46:44;5.05;;;1.25;;
37655;SDS011;23498;50.958;3.124;2023-07-29T11:49:10;2.53;;;1.10;;
37655;SDS011;23498;50.958;3.124;2023-07-29T11:51:36;2.63;;;1.10;;
37655;SDS011;23498;50.958;3.124;2023-07-29T11:54:03;3.08;;;1.30;;
37655;SDS011;23498;50.958;3.124;2023-07-29T11:56:29;2.55;;;0.90;;
37655;SDS011;23498;50.958;3.124;2023-07-29T11:58:58;3.45;;;1.20;;
37655;SDS011;23498;50.958;3.124;2023-07-29T12:01:24;2.38;;;1.02;;
37655;SDS011;23498;50.958;3.124;2023-07-29T12:03:50;2.55;;;0.90;;
37655;SDS011;23498;50.958;3.124;2023-07-29T12:06:16;2.42;;;1.23;;
37655;SDS011;23498;50.958;3.124;2023-07-29T12:08:43;1.95;;;0.80;;
37655;SDS011;23498;50.958;3.124;2023-07-29T12:11:09;2.85;;;1.10;;
37655;SDS011;23498;50.958;3.124;2023-07-29T12:13:38;2.50;;;1.00;;
37655;SDS011;23498;50.958;3.124;2023-07-29T12:16:04;2.13;;;0.90;;
37655;SDS011;23498;50.958;3.124;2023-07-29T12:18:31;3.35;;;1.10;;
37655;SDS011;23498;50.958;3.124;2023-07-29T12:20:58;2.10;;;1.25;;
37655;SDS011;23498;50.958;3.124;2023-07-29T12:23:24;2.88;;;1.10;;
37655;SDS011;23498;50.958;3.124;2023-07-29T12:25:59;3.42;;;1.30;;
37655;SDS011;23498;50.958;3.124;2023-07-29T12:28:26;2.53;;;1.15;;
37655;SDS011;23498;50.958;3.124;2023-07-29T12:30:55;2.72;;;1.50;;
37655;SDS011;23498;50.958;3.124;2023-07-29T12:33:31;4.05;;;1.60;;
37655;SDS011;23498;50.958;3.124;2023-07-29T12:35:57;3.80;;;1.30;;
37655;SDS011;23498;50.958;3.124;2023-07-29T12:38:25;3.22;;;1.60;;
37655;SDS011;23498;50.958;3.124;2023-07-29T12:40:51;4.00;;;1.65;;
37655;SDS011;23498;50.958;3.124;2023-07-29T12:43:17;4.00;;;1.40;;
37655;SDS011;23498;50.958;3.124;2023-07-29T12:45:43;2.50;;;1.13;;
37655;SDS011;23498;50.958;3.124;2023-07-29T12:48:09;2.35;;;1.30;;
37655;SDS011;23498;50.958;3.124;2023-07-29T12:50:36;2.28;;;1.17;;
37655;SDS011;23498;50.958;3.124;2023-07-29T12:53:02;2.75;;;1.50;;
37655;SDS011;23498;50.958;3.124;2023-07-29T12:55:28;2.42;;;1.40;;
37655;SDS011;23498;50.958;3.124;2023-07-29T12:57:54;2.83;;;1.48;;
37655;SDS011;23498;50.958;3.124;2023-07-29T13:00:20;2.80;;;1.80;;
37655;SDS011;23498;50.958;3.124;2023-07-29T13:02:46;3.13;;;1.92;;
37655;SDS011;23498;50.958;3.124;2023-07-29T13:05:12;3.70;;;2.40;;
37655;SDS011;23498;50.958;3.124;2023-07-29T13:07:39;3.50;;;2.22;;
37655;SDS011;23498;50.958;3.124;2023-07-29T13:10:05;4.00;;;2.42;;
37655;SDS011;23498;50.958;3.124;2023-07-29T13:12:31;3.20;;;2.30;;
37655;SDS011;23498;50.958;3.124;2023-07-29T13:14:57;4.97;;;1.70;;
37655;SDS011;23498;50.958;3.124;2023-07-29T13:17:24;2.47;;;1.33;;
37655;SDS011;23498;50.958;3.124;2023-07-29T13:19:50;1.95;;;1.00;;
37655;SDS011;23498;50.958;3.124;2023-07-29T13:22:16;1.23;;;0.70;;
37655;SDS011;23498;50.958;3.124;2023-07-29T13:24:42;1.73;;;0.80;;
37655;SDS011;23498;50.958;3.124;2023-07-29T13:27:08;0.88;;;0.65;;
37655;SDS011;23498;50.958;3.124;2023-07-29T13:29:34;0.90;;;0.60;;
37655;SDS011;23498;50.958;3.124;2023-07-29T13:32:00;1.27;;;0.60;;
37655;SDS011;23498;50.958;3.124;2023-07-29T13:34:26;1.20;;;0.50;;
37655;SDS011;23498;50.958;3.124;2023-07-29T13:36:52;1.95;;;0.50;;
37655;SDS011;23498;50.958;3.124;2023-07-29T13:39:18;0.93;;;0.50;;
37655;SDS011;23498;50.958;3.124;2023-07-29T13:41:44;2.28;;;0.60;;
37655;SDS011;23498;50.958;3.124;2023-07-29T13:44:10;1.42;;;0.70;;
37655;SDS011;23498;50.958;3.124;2023-07-29T13:46:37;2.10;;;0.95;;
37655;SDS011;23498;50.958;3.124;2023-07-29T13:49:03;3.17;;;0.80;;
37655;SDS011;23498;50.958;3.124;2023-07-29T13:51:29;1.80;;;0.52;;
37655;SDS011;23498;50.958;3.124;2023-07-29T13:53:55;1.58;;;0.60;;
37655;SDS011;23498;50.958;3.124;2023-07-29T13:56:21;2.88;;;0.77;;
37655;SDS011;23498;50.958;3.124;2023-07-29T13:58:47;2.47;;;0.85;;
37655;SDS011;23498;50.958;3.124;2023-07-29T14:01:13;2.10;;;0.90;;
37655;SDS011;23498;50.958;3.124;2023-07-29T14:03:39;2.85;;;1.02;;
37655;SDS011;23498;50.958;3.124;2023-07-29T14:06:05;3.35;;;0.90;;
37655;SDS011;23498;50.958;3.124;2023-07-29T14:08:31;2.90;;;1.20;;
37655;SDS011;23498;50.958;3.124;2023-07-29T14:10:57;3.00;;;1.45;;
37655;SDS011;23498;50.958;3.124;2023-07-29T14:13:23;1.80;;;1.00;;
37655;SDS011;23498;50.958;3.124;2023-07-29T14:15:49;2.75;;;0.90;;
37655;SDS011;23498;50.958;3.124;2023-07-29T14:18:15;3.80;;;1.58;;
37655;SDS011;23498;50.958;3.124;2023-07-29T14:20:41;2.63;;;1.02;;
37655;SDS011;23498;50.958;3.124;2023-07-29T14:23:07;5.43;;;1.27;;
37655;SDS011;23498;50.958;3.124;2023-07-29T14:25:33;2.67;;;1.15;;
37655;SDS011;23498;50.958;3.124;2023-07-29T14:27:59;4.20;;;1.35;;
37655;SDS011;23498;50.958;3.124;2023-07-29T14:30:25;5.35;;;1.65;;
37655;SDS011;23498;50.958;3.124;2023-07-29T14:32:51;3.88;;;1.48;;
37655;SDS011;23498;50.958;3.124;2023-07-29T14:35:17;6.35;;;1.30;;
37655;SDS011;23498;50.958;3.124;2023-07-29T14:37:43;3.50;;;1.40;;
37655;SDS011;23498;50.958;3.124;2023-07-29T14:40:09;6.20;;;1.48;;
37655;SDS011;23498;50.958;3.124;2023-07-29T14:42:35;3.63;;;1.30;;
37655;SDS011;23498;50.958;3.124;2023-07-29T14:45:01;6.65;;;1.70;;
37655;SDS011;23498;50.958;3.124;2023-07-29T14:47:27;5.63;;;1.40;;
37655;SDS011;23498;50.958;3.124;2023-07-29T14:49:53;5.00;;;1.40;;
37655;SDS011;23498;50.958;3.124;2023-07-29T14:52:19;4.47;;;1.20;;
37655;SDS011;23498;50.958;3.124;2023-07-29T14:54:45;5.15;;;1.25;;
37655;SDS011;23498;50.958;3.124;2023-07-29T14:57:11;3.95;;;1.35;;
37655;SDS011;23498;50.958;3.124;2023-07-29T14:59:37;6.10;;;1.40;;